Terminal Aerodrome Forecast
Issued by NWS

Home | Current Version | Previous Version | Text Only | Print | Product List | Glossary On
Versions: 1 2 3 4 5 6 7 8 9 10 11 12 13 14 15 16 17 18
000
FTUS41 KPHI 302330
TAFPNE
TAF
KPNE 302330Z 0100/0124 15005KT P6SM OVC045
     FM010400 08005KT P6SM -RA OVC035
     FM010800 09009KT 3SM -RA SCT009 OVC025
     FM011300 11008KT 2SM RA BR OVC009
     FM011800 10006KT 1SM RA BR OVC004=

USA.gov is the U.S. government's official web portal to all federal, state and local government web resources and services.